Willcox, AZ

9:21 PM MST on September 30, 2014 (GMT -0700)
Fort Huachuca | Change Station
CLOSE
Current Station
Airport
Location: Fort Huachuca,
Elevation: 4767 ft
Nearby Weather Stations

Elev 4767 ft 31.61 °N, 110.43 °W | Updated 25 minutes ago

Clear
Clear
59 °F
Feels Like 59 °F
N
8
Wind Variable Wind from SW

Today
High -- | Low -- °F
--% Chance of Precip.
Yesterday
High -- | Low -- °F
Precip. -- in
6:12 AM 6:05 PM
Waxing Crescent, 43% visible
Pressure 29.78 in
Visibility 10.0 miles
Clouds Clear
Dew Point 40 °F
Humidity 49%
Rainfall 0.00 in
Snow Depth 2 in , 0 in , 1 in
UV 0 out of 12
Pollen 6.00 out of 12
Air Quality Not available.
Flu Activity Not available.
METAR KALK 010356Z AUTO 22007KT 10SM CLR 15/04 A3001 RMK AO2 SLP083 T01500044 TSNO

More Conditions Fewer Conditions

Pressure 29.78 in
Visibility 10.0 miles
Clouds Clear
Dew Point 40 °F
Humidity 49%
Rainfall 0.00 in
Snow Depth 2 in , 0 in , 1 in
UV 0 out of 12
Pollen 6.00 out of 12
Air Quality Not available.
Flu Activity Not available.
METAR KALK 010356Z AUTO 22007KT 10SM CLR 15/04 A3001 RMK AO2 SLP083 T01500044 TSNO

More Conditions Fewer Conditions

10-Day Weather Forecast

Almanac

Astronomy

Sep. 30, 2014 Rise Set
Actual Time 6:12 AM MST 6:05 PM MST
Civil Twilight 5:48 AM MST 6:29 PM MST
Nautical Twilight 5:20 AM MST 6:58 PM MST
Astronomical Twilight 4:51 AM MST 7:26 PM MST
Moon 12:09 PM MST (9/30) 10:53 PM MST (9/30)
Length of Visible Light 12h 41m
Length of Day
11h 52m
Tomorrow will be 1m 58s shorter.
Waxing Crescent, 43% of the Moon is Illuminated
Oct 1
Waxing Crescent
Oct 1
First Quarter
Oct 8
Full
Oct 15
Last Quarter
Oct 23
New

Yesterday's Extremes

State Highs State Lows

Community

WunderPhotos

Upload Photos

1,757,841 photos uploaded!

Nearby

Snow Depth

Station Depth Elevation
Workman Creek 2 in 6900 ft
White Horse Lake 0 in 7180 ft
Snowslide Canyon 1 in 9730 ft
Promontory 0 in 7930 ft
Mormon Mountain 0 in 7500 ft

Earthquake Activity

City Distance Mag. Time & Date
No recent earthquake activity has been reported nearby.
Minimum magnitude displayed is 2.5.

Coastal Water Temperatures

Place Temperature
No Stations Reporting

Nearby Weather Stations